sensor_id;sensor_type;location;lat;lon;timestamp;P1;durP1;ratioP1;P2;durP2;ratioP2
31531;SDS011;23787;52.180;5.288;2022-10-26T00:03:03;94.70;;;89.10;;
31531;SDS011;23787;52.180;5.288;2022-10-26T00:08:04;94.70;;;89.10;;
31531;SDS011;23787;52.180;5.288;2022-10-26T00:13:06;131.60;;;124.10;;
31531;SDS011;23787;52.180;5.288;2022-10-26T00:18:03;131.60;;;124.10;;
31531;SDS011;23787;52.180;5.288;2022-10-26T00:23:03;131.60;;;124.10;;
31531;SDS011;23787;52.180;5.288;2022-10-26T00:28:03;122.00;;;115.20;;
31531;SDS011;23787;52.180;5.288;2022-10-26T00:38:03;122.00;;;115.20;;
31531;SDS011;23787;52.180;5.288;2022-10-26T00:43:05;122.10;;;114.90;;
31531;SDS011;23787;52.180;5.288;2022-10-26T00:48:05;122.10;;;114.90;;
31531;SDS011;23787;52.180;5.288;2022-10-26T00:58:06;100.10;;;94.70;;
31531;SDS011;23787;52.180;5.288;2022-10-26T01:08:04;100.10;;;94.70;;
31531;SDS011;23787;52.180;5.288;2022-10-26T01:13:04;108.50;;;102.30;;
31531;SDS011;23787;52.180;5.288;2022-10-26T01:18:09;108.50;;;102.30;;
31531;SDS011;23787;52.180;5.288;2022-10-26T01:28:06;118.70;;;111.70;;
31531;SDS011;23787;52.180;5.288;2022-10-26T01:33:13;118.70;;;111.70;;
31531;SDS011;23787;52.180;5.288;2022-10-26T01:38:08;118.70;;;111.70;;
31531;SDS011;23787;52.180;5.288;2022-10-26T01:43:07;97.00;;;91.80;;
31531;SDS011;23787;52.180;5.288;2022-10-26T01:48:05;97.00;;;91.80;;
31531;SDS011;23787;52.180;5.288;2022-10-26T01:53:03;97.00;;;91.80;;
31531;SDS011;23787;52.180;5.288;2022-10-26T02:08:14;118.00;;;110.80;;
31531;SDS011;23787;52.180;5.288;2022-10-26T02:13:11;119.40;;;112.40;;
31531;SDS011;23787;52.180;5.288;2022-10-26T02:18:10;119.40;;;112.40;;
31531;SDS011;23787;52.180;5.288;2022-10-26T02:23:06;119.40;;;112.40;;
31531;SDS011;23787;52.180;5.288;2022-10-26T02:28:06;110.80;;;104.90;;
31531;SDS011;23787;52.180;5.288;2022-10-26T02:33:05;110.80;;;104.90;;
31531;SDS011;23787;52.180;5.288;2022-10-26T02:38:06;110.80;;;104.90;;
31531;SDS011;23787;52.180;5.288;2022-10-26T02:48:04;106.00;;;99.90;;
31531;SDS011;23787;52.180;5.288;2022-10-26T02:58:09;131.80;;;124.20;;
31531;SDS011;23787;52.180;5.288;2022-10-26T03:13:03;122.00;;;115.00;;
31531;SDS011;23787;52.180;5.288;2022-10-26T03:23:03;122.00;;;115.00;;
31531;SDS011;23787;52.180;5.288;2022-10-26T03:28:04;129.20;;;121.40;;
31531;SDS011;23787;52.180;5.288;2022-10-26T03:33:04;129.20;;;121.40;;
31531;SDS011;23787;52.180;5.288;2022-10-26T03:38:03;129.20;;;121.40;;
31531;SDS011;23787;52.180;5.288;2022-10-26T03:43:03;125.10;;;117.80;;
31531;SDS011;23787;52.180;5.288;2022-10-26T03:48:04;125.10;;;117.80;;
31531;SDS011;23787;52.180;5.288;2022-10-26T03:53:03;125.10;;;117.80;;
31531;SDS011;23787;52.180;5.288;2022-10-26T03:58:04;165.60;;;155.70;;
31531;SDS011;23787;52.180;5.288;2022-10-26T04:03:03;165.60;;;155.70;;
31531;SDS011;23787;52.180;5.288;2022-10-26T04:18:04;129.80;;;122.50;;
31531;SDS011;23787;52.180;5.288;2022-10-26T04:28:04;144.00;;;135.80;;
31531;SDS011;23787;52.180;5.288;2022-10-26T04:38:05;144.00;;;135.80;;
31531;SDS011;23787;52.180;5.288;2022-10-26T04:48:06;136.40;;;128.30;;
31531;SDS011;23787;52.180;5.288;2022-10-26T04:53:04;136.40;;;128.30;;
31531;SDS011;23787;52.180;5.288;2022-10-26T04:58:04;136.00;;;127.80;;
31531;SDS011;23787;52.180;5.288;2022-10-26T05:03:05;136.00;;;127.80;;
31531;SDS011;23787;52.180;5.288;2022-10-26T05:08:04;136.00;;;127.80;;
31531;SDS011;23787;52.180;5.288;2022-10-26T05:13:04;151.40;;;142.50;;
31531;SDS011;23787;52.180;5.288;2022-10-26T05:18:04;151.40;;;142.50;;
31531;SDS011;23787;52.180;5.288;2022-10-26T05:33:04;128.40;;;121.00;;
31531;SDS011;23787;52.180;5.288;2022-10-26T05:43:03;131.80;;;124.20;;
31531;SDS011;23787;52.180;5.288;2022-10-26T05:48:04;131.80;;;124.20;;
31531;SDS011;23787;52.180;5.288;2022-10-26T05:58:08;126.80;;;119.40;;
31531;SDS011;23787;52.180;5.288;2022-10-26T06:03:08;126.80;;;119.40;;
31531;SDS011;23787;52.180;5.288;2022-10-26T06:13:04;112.40;;;106.00;;
31531;SDS011;23787;52.180;5.288;2022-10-26T06:23:17;112.40;;;106.00;;
31531;SDS011;23787;52.180;5.288;2022-10-26T06:28:12;138.10;;;129.70;;
31531;SDS011;23787;52.180;5.288;2022-10-26T06:33:03;138.10;;;129.70;;
31531;SDS011;23787;52.180;5.288;2022-10-26T06:53:09;168.70;;;159.20;;
31531;SDS011;23787;52.180;5.288;2022-10-26T06:58:04;136.80;;;129.00;;
31531;SDS011;23787;52.180;5.288;2022-10-26T07:08:04;136.80;;;129.00;;
31531;SDS011;23787;52.180;5.288;2022-10-26T07:13:03;140.90;;;132.70;;
31531;SDS011;23787;52.180;5.288;2022-10-26T07:18:05;140.90;;;132.70;;
31531;SDS011;23787;52.180;5.288;2022-10-26T07:28:04;136.40;;;128.40;;
31531;SDS011;23787;52.180;5.288;2022-10-26T07:38:04;136.40;;;128.40;;
31531;SDS011;23787;52.180;5.288;2022-10-26T07:43:04;150.70;;;141.40;;
31531;SDS011;23787;52.180;5.288;2022-10-26T07:48:04;150.70;;;141.40;;
31531;SDS011;23787;52.180;5.288;2022-10-26T07:53:03;150.70;;;141.40;;
31531;SDS011;23787;52.180;5.288;2022-10-26T07:58:03;164.30;;;154.50;;
31531;SDS011;23787;52.180;5.288;2022-10-26T08:03:03;164.30;;;154.50;;
31531;SDS011;23787;52.180;5.288;2022-10-26T08:08:04;164.30;;;154.50;;
31531;SDS011;23787;52.180;5.288;2022-10-26T08:13:04;170.40;;;160.30;;
31531;SDS011;23787;52.180;5.288;2022-10-26T08:18:04;170.40;;;160.30;;
31531;SDS011;23787;52.180;5.288;2022-10-26T08:23:03;170.40;;;160.30;;
31531;SDS011;23787;52.180;5.288;2022-10-26T08:28:04;176.10;;;165.50;;
31531;SDS011;23787;52.180;5.288;2022-10-26T08:33:06;176.10;;;165.50;;
31531;SDS011;23787;52.180;5.288;2022-10-26T08:38:03;176.10;;;165.50;;
31531;SDS011;23787;52.180;5.288;2022-10-26T08:43:09;240.50;;;226.70;;
31531;SDS011;23787;52.180;5.288;2022-10-26T08:48:08;240.50;;;226.70;;
31531;SDS011;23787;52.180;5.288;2022-10-26T08:53:08;240.50;;;226.70;;
31531;SDS011;23787;52.180;5.288;2022-10-26T08:58:06;293.20;;;274.70;;
31531;SDS011;23787;52.180;5.288;2022-10-26T09:03:10;293.20;;;274.70;;
31531;SDS011;23787;52.180;5.288;2022-10-26T09:08:07;293.20;;;274.70;;
31531;SDS011;23787;52.180;5.288;2022-10-26T09:13:12;386.60;;;362.00;;
31531;SDS011;23787;52.180;5.288;2022-10-26T09:18:13;386.60;;;362.00;;
31531;SDS011;23787;52.180;5.288;2022-10-26T09:23:12;386.60;;;362.00;;
31531;SDS011;23787;52.180;5.288;2022-10-26T09:28:04;414.20;;;386.90;;
31531;SDS011;23787;52.180;5.288;2022-10-26T09:33:10;414.20;;;386.90;;
31531;SDS011;23787;52.180;5.288;2022-10-26T09:38:10;414.20;;;386.90;;
31531;SDS011;23787;52.180;5.288;2022-10-26T09:43:09;457.90;;;424.90;;
31531;SDS011;23787;52.180;5.288;2022-10-26T09:48:06;457.90;;;424.90;;
31531;SDS011;23787;52.180;5.288;2022-10-26T09:53:04;457.90;;;424.90;;
31531;SDS011;23787;52.180;5.288;2022-10-26T09:58:11;399.70;;;368.00;;
31531;SDS011;23787;52.180;5.288;2022-10-26T10:03:17;399.70;;;368.00;;
31531;SDS011;23787;52.180;5.288;2022-10-26T10:08:15;399.70;;;368.00;;
31531;SDS011;23787;52.180;5.288;2022-10-26T10:13:14;364.80;;;335.70;;
31531;SDS011;23787;52.180;5.288;2022-10-26T10:18:04;364.80;;;335.70;;
31531;SDS011;23787;52.180;5.288;2022-10-26T10:23:04;364.80;;;335.70;;
31531;SDS011;23787;52.180;5.288;2022-10-26T10:28:18;319.10;;;292.40;;
31531;SDS011;23787;52.180;5.288;2022-10-26T10:33:06;319.10;;;292.40;;
31531;SDS011;23787;52.180;5.288;2022-10-26T10:38:04;319.10;;;292.40;;
31531;SDS011;23787;52.180;5.288;2022-10-26T10:43:06;237.90;;;216.30;;
31531;SDS011;23787;52.180;5.288;2022-10-26T10:48:13;237.90;;;216.30;;
31531;SDS011;23787;52.180;5.288;2022-10-26T10:53:13;237.90;;;216.30;;
31531;SDS011;23787;52.180;5.288;2022-10-26T10:58:13;225.80;;;206.00;;
31531;SDS011;23787;52.180;5.288;2022-10-26T11:03:14;225.80;;;206.00;;
31531;SDS011;23787;52.180;5.288;2022-10-26T11:08:08;225.80;;;206.00;;
31531;SDS011;23787;52.180;5.288;2022-10-26T11:13:08;128.30;;;115.20;;
31531;SDS011;23787;52.180;5.288;2022-10-26T11:18:07;128.30;;;115.20;;
31531;SDS011;23787;52.180;5.288;2022-10-26T11:23:08;128.30;;;115.20;;
31531;SDS011;23787;52.180;5.288;2022-10-26T11:28:11;142.70;;;128.20;;
31531;SDS011;23787;52.180;5.288;2022-10-26T11:33:10;142.70;;;128.20;;
31531;SDS011;23787;52.180;5.288;2022-10-26T11:38:11;142.70;;;128.20;;
31531;SDS011;23787;52.180;5.288;2022-10-26T11:53:09;141.80;;;127.90;;
31531;SDS011;23787;52.180;5.288;2022-10-26T11:58:04;173.10;;;158.20;;
31531;SDS011;23787;52.180;5.288;2022-10-26T12:03:08;173.10;;;158.20;;
31531;SDS011;23787;52.180;5.288;2022-10-26T12:08:07;173.10;;;158.20;;
31531;SDS011;23787;52.180;5.288;2022-10-26T12:13:13;182.70;;;166.40;;
31531;SDS011;23787;52.180;5.288;2022-10-26T12:18:10;182.70;;;166.40;;
31531;SDS011;23787;52.180;5.288;2022-10-26T12:23:07;182.70;;;166.40;;
31531;SDS011;23787;52.180;5.288;2022-10-26T12:28:04;201.30;;;181.30;;
31531;SDS011;23787;52.180;5.288;2022-10-26T12:48:23;187.50;;;169.70;;
31531;SDS011;23787;52.180;5.288;2022-10-26T12:53:05;187.50;;;169.70;;
31531;SDS011;23787;52.180;5.288;2022-10-26T13:03:17;165.90;;;149.80;;
31531;SDS011;23787;52.180;5.288;2022-10-26T13:08:06;165.90;;;149.80;;
31531;SDS011;23787;52.180;5.288;2022-10-26T13:13:05;162.40;;;145.70;;
31531;SDS011;23787;52.180;5.288;2022-10-26T13:18:08;162.40;;;145.70;;
31531;SDS011;23787;52.180;5.288;2022-10-26T13:23:14;162.40;;;145.70;;
31531;SDS011;23787;52.180;5.288;2022-10-26T13:28:06;162.20;;;145.90;;
31531;SDS011;23787;52.180;5.288;2022-10-26T13:33:08;162.20;;;145.90;;
31531;SDS011;23787;52.180;5.288;2022-10-26T13:38:08;162.20;;;145.90;;
31531;SDS011;23787;52.180;5.288;2022-10-26T13:43:06;145.50;;;130.70;;
31531;SDS011;23787;52.180;5.288;2022-10-26T13:48:06;145.50;;;130.70;;
31531;SDS011;23787;52.180;5.288;2022-10-26T13:53:06;145.50;;;130.70;;
31531;SDS011;23787;52.180;5.288;2022-10-26T13:58:10;122.30;;;110.50;;
31531;SDS011;23787;52.180;5.288;2022-10-26T14:03:12;122.30;;;110.50;;
31531;SDS011;23787;52.180;5.288;2022-10-26T14:08:04;122.30;;;110.50;;
31531;SDS011;23787;52.180;5.288;2022-10-26T14:18:04;151.70;;;137.30;;
31531;SDS011;23787;52.180;5.288;2022-10-26T14:23:04;151.70;;;137.30;;
31531;SDS011;23787;52.180;5.288;2022-10-26T14:28:19;129.60;;;117.20;;
31531;SDS011;23787;52.180;5.288;2022-10-26T14:33:17;129.60;;;117.20;;
31531;SDS011;23787;52.180;5.288;2022-10-26T14:38:06;129.60;;;117.20;;
31531;SDS011;23787;52.180;5.288;2022-10-26T14:43:04;121.90;;;109.30;;
31531;SDS011;23787;52.180;5.288;2022-10-26T14:48:05;121.90;;;109.30;;
31531;SDS011;23787;52.180;5.288;2022-10-26T14:53:13;121.90;;;109.30;;
31531;SDS011;23787;52.180;5.288;2022-10-26T14:58:12;128.00;;;116.30;;
31531;SDS011;23787;52.180;5.288;2022-10-26T15:03:08;128.00;;;116.30;;
31531;SDS011;23787;52.180;5.288;2022-10-26T15:13:07;151.10;;;136.30;;
31531;SDS011;23787;52.180;5.288;2022-10-26T15:18:04;151.10;;;136.30;;
31531;SDS011;23787;52.180;5.288;2022-10-26T15:23:04;151.10;;;136.30;;
31531;SDS011;23787;52.180;5.288;2022-10-26T15:28:08;157.70;;;142.70;;
31531;SDS011;23787;52.180;5.288;2022-10-26T15:38:04;157.70;;;142.70;;
31531;SDS011;23787;52.180;5.288;2022-10-26T15:43:04;196.20;;;178.10;;
31531;SDS011;23787;52.180;5.288;2022-10-26T15:53:14;196.20;;;178.10;;
31531;SDS011;23787;52.180;5.288;2022-10-26T15:58:04;172.00;;;156.50;;
31531;SDS011;23787;52.180;5.288;2022-10-26T16:03:04;172.00;;;156.50;;
31531;SDS011;23787;52.180;5.288;2022-10-26T16:08:04;172.00;;;156.50;;
31531;SDS011;23787;52.180;5.288;2022-10-26T16:23:04;229.20;;;207.30;;
31531;SDS011;23787;52.180;5.288;2022-10-26T16:33:04;222.20;;;201.30;;
31531;SDS011;23787;52.180;5.288;2022-10-26T16:43:04;257.10;;;233.30;;
31531;SDS011;23787;52.180;5.288;2022-10-26T16:48:04;257.10;;;233.30;;
31531;SDS011;23787;52.180;5.288;2022-10-26T16:53:04;257.10;;;233.30;;
31531;SDS011;23787;52.180;5.288;2022-10-26T16:58:04;295.10;;;268.50;;
31531;SDS011;23787;52.180;5.288;2022-10-26T17:03:04;295.10;;;268.50;;
31531;SDS011;23787;52.180;5.288;2022-10-26T17:08:05;295.10;;;268.50;;
31531;SDS011;23787;52.180;5.288;2022-10-26T17:18:04;313.80;;;286.60;;
31531;SDS011;23787;52.180;5.288;2022-10-26T17:23:04;313.80;;;286.60;;
31531;SDS011;23787;52.180;5.288;2022-10-26T17:28:04;326.20;;;298.30;;
31531;SDS011;23787;52.180;5.288;2022-10-26T17:33:04;326.20;;;298.30;;
31531;SDS011;23787;52.180;5.288;2022-10-26T17:43:04;358.10;;;328.10;;
31531;SDS011;23787;52.180;5.288;2022-10-26T17:48:04;358.10;;;328.10;;
31531;SDS011;23787;52.180;5.288;2022-10-26T17:53:04;358.10;;;328.10;;
31531;SDS011;23787;52.180;5.288;2022-10-26T17:58:04;374.40;;;343.10;;
31531;SDS011;23787;52.180;5.288;2022-10-26T18:08:04;374.40;;;343.10;;
31531;SDS011;23787;52.180;5.288;2022-10-26T18:28:04;424.10;;;392.10;;
31531;SDS011;23787;52.180;5.288;2022-10-26T18:33:04;424.10;;;392.10;;
31531;SDS011;23787;52.180;5.288;2022-10-26T18:38:04;424.10;;;392.10;;
31531;SDS011;23787;52.180;5.288;2022-10-26T18:43:04;435.30;;;400.60;;
31531;SDS011;23787;52.180;5.288;2022-10-26T18:53:04;435.30;;;400.60;;
31531;SDS011;23787;52.180;5.288;2022-10-26T18:58:04;419.60;;;388.40;;
31531;SDS011;23787;52.180;5.288;2022-10-26T19:03:04;419.60;;;388.40;;
31531;SDS011;23787;52.180;5.288;2022-10-26T19:06:15;419.60;;;388.40;;
31531;SDS011;23787;52.180;5.288;2022-10-26T19:06:45;419.60;;;388.40;;
31531;SDS011;23787;52.180;5.288;2022-10-26T19:18:04;426.90;;;395.10;;
31531;SDS011;23787;52.180;5.288;2022-10-26T19:28:04;435.20;;;402.10;;
31531;SDS011;23787;52.180;5.288;2022-10-26T19:38:04;435.20;;;402.10;;
31531;SDS011;23787;52.180;5.288;2022-10-26T19:53:04;466.90;;;434.50;;
31531;SDS011;23787;52.180;5.288;2022-10-26T19:58:04;424.20;;;392.90;;
31531;SDS011;23787;52.180;5.288;2022-10-26T20:03:05;424.20;;;392.90;;
31531;SDS011;23787;52.180;5.288;2022-10-26T20:08:04;424.20;;;392.90;;
31531;SDS011;23787;52.180;5.288;2022-10-26T20:13:04;456.70;;;423.30;;
31531;SDS011;23787;52.180;5.288;2022-10-26T20:18:05;456.70;;;423.30;;
31531;SDS011;23787;52.180;5.288;2022-10-26T20:23:04;456.70;;;423.30;;
31531;SDS011;23787;52.180;5.288;2022-10-26T20:28:05;465.50;;;433.40;;
31531;SDS011;23787;52.180;5.288;2022-10-26T20:33:04;465.50;;;433.40;;
31531;SDS011;23787;52.180;5.288;2022-10-26T20:38:05;465.50;;;433.40;;
31531;SDS011;23787;52.180;5.288;2022-10-26T20:48:04;455.10;;;423.60;;
31531;SDS011;23787;52.180;5.288;2022-10-26T20:53:09;455.10;;;423.60;;
31531;SDS011;23787;52.180;5.288;2022-10-26T20:58:09;411.60;;;382.00;;
31531;SDS011;23787;52.180;5.288;2022-10-26T21:08:04;411.60;;;382.00;;
31531;SDS011;23787;52.180;5.288;2022-10-26T21:13:04;436.90;;;404.80;;
31531;SDS011;23787;52.180;5.288;2022-10-26T21:23:04;436.90;;;404.80;;
31531;SDS011;23787;52.180;5.288;2022-10-26T21:33:04;416.30;;;388.80;;
31531;SDS011;23787;52.180;5.288;2022-10-26T21:38:04;429.30;;;400.20;;
31531;SDS011;23787;52.180;5.288;2022-10-26T21:43:04;429.30;;;400.20;;
31531;SDS011;23787;52.180;5.288;2022-10-26T21:58:04;421.40;;;391.50;;
31531;SDS011;23787;52.180;5.288;2022-10-26T22:03:04;421.40;;;391.50;;
31531;SDS011;23787;52.180;5.288;2022-10-26T22:08:04;405.90;;;379.00;;
31531;SDS011;23787;52.180;5.288;2022-10-26T22:13:04;405.90;;;379.00;;
31531;SDS011;23787;52.180;5.288;2022-10-26T22:23:04;371.80;;;346.00;;
31531;SDS011;23787;52.180;5.288;2022-10-26T22:38:04;409.80;;;382.50;;
31531;SDS011;23787;52.180;5.288;2022-10-26T22:43:04;409.80;;;382.50;;
31531;SDS011;23787;52.180;5.288;2022-10-26T22:53:04;401.70;;;376.50;;
31531;SDS011;23787;52.180;5.288;2022-10-26T22:58:04;401.70;;;376.50;;
31531;SDS011;23787;52.180;5.288;2022-10-26T23:08:04;398.20;;;370.60;;
31531;SDS011;23787;52.180;5.288;2022-10-26T23:13:04;398.20;;;370.60;;
31531;SDS011;23787;52.180;5.288;2022-10-26T23:18:04;398.20;;;370.60;;
31531;SDS011;23787;52.180;5.288;2022-10-26T23:38:04;366.60;;;341.30;;
31531;SDS011;23787;52.180;5.288;2022-10-26T23:43:04;366.60;;;341.30;;
31531;SDS011;23787;52.180;5.288;2022-10-26T23:53:04;416.40;;;389.90;;
